CheckWX is a tool to help pilots better visualize weather data.  It is not intended as a substitute for an official pre-flight weather briefing.

13:41:22 UTC

CYKA METAR
Kamloops Airport
Kamloops, Canada
Current

41 mins ago

CYKA 201300Z 09006KT 40SM FEW070 OVC090 14/10 A3012 RMK AC2AS6 SLP201
Observed
Jul-20 @ 13:00 UTC
Wind
  • 090° at 6 KTS
Visibility
40 SM
Flight Rules
VFR
Cloud Levels
  • Few at 7,000' AGL
  • Overcast at 9,000' AGL
Temperature
14°C / 57°F
Dewpoint
10°C / 50°F
Humidity
77%
Altimeter
30.12" Hg
Pressure
1020.02 hPa
Previous

2 hours ago

CYKA 201200Z 10008KT 40SM SCT090 OVC160 14/10 A3011 RMK AC4AC4 SLP200
Observed
Jul-20 @ 12:00 UTC
Wind
  • 100° at 8 KTS
Visibility
40 SM
Flight Rules
VFR
Cloud Levels
  • Scattered at 9,000' AGL
  • Overcast at 16,000' AGL
Temperature
14°C / 57°F
Dewpoint
10°C / 50°F
Humidity
77%
Altimeter
30.11" Hg
Pressure
1019.62 hPa
Previous

3 hours ago

CYKA 201100Z 05004KT 40SM SCT080 BKN100 OVC160 14/10 A3011 RMK AC4AC2AC2 SLP197 DENSITY ALT 1200FT
Observed
Jul-20 @ 11:00 UTC
Wind
  • 050° at 4 KTS
Visibility
40 SM
Flight Rules
VFR
Cloud Levels
  • Scattered at 8,000' AGL
  • Broken at 10,000' AGL
  • Overcast at 16,000' AGL
Temperature
14°C / 57°F
Dewpoint
10°C / 50°F
Humidity
77%
Altimeter
30.11" Hg
Pressure
1019.62 hPa